sensor_id;sensor_type;location;lat;lon;timestamp;temperature;humidity
69387;SHT31;56575;48.942;8.404;2022-07-18T00:01:56;19.78;48.45
69387;SHT31;56575;48.942;8.404;2022-07-18T00:04:22;19.75;48.44
69387;SHT31;56575;48.942;8.404;2022-07-18T00:06:47;19.67;47.34
69387;SHT31;56575;48.942;8.404;2022-07-18T00:09:13;19.60;48.03
69387;SHT31;56575;48.942;8.404;2022-07-18T00:11:39;19.64;48.12
69387;SHT31;56575;48.942;8.404;2022-07-18T00:14:04;19.63;48.37
69387;SHT31;56575;48.942;8.404;2022-07-18T00:16:30;19.58;48.29
69387;SHT31;56575;48.942;8.404;2022-07-18T00:18:55;19.50;48.85
69387;SHT31;56575;48.942;8.404;2022-07-18T00:21:22;19.49;48.11
69387;SHT31;56575;48.942;8.404;2022-07-18T00:23:48;19.39;48.00
69387;SHT31;56575;48.942;8.404;2022-07-18T00:26:13;19.36;47.54
69387;SHT31;56575;48.942;8.404;2022-07-18T00:28:39;19.33;48.22
69387;SHT31;56575;48.942;8.404;2022-07-18T00:31:04;19.33;48.40
69387;SHT31;56575;48.942;8.404;2022-07-18T00:33:29;19.31;48.18
69387;SHT31;56575;48.942;8.404;2022-07-18T00:35:55;19.29;47.80
69387;SHT31;56575;48.942;8.404;2022-07-18T00:38:22;19.29;48.56
69387;SHT31;56575;48.942;8.404;2022-07-18T00:40:48;19.29;47.66
69387;SHT31;56575;48.942;8.404;2022-07-18T00:43:14;19.19;48.62
69387;SHT31;56575;48.942;8.404;2022-07-18T00:45:45;19.19;48.73
69387;SHT31;56575;48.942;8.404;2022-07-18T00:48:14;19.19;48.33
69387;SHT31;56575;48.942;8.404;2022-07-18T00:50:43;19.23;47.55
69387;SHT31;56575;48.942;8.404;2022-07-18T00:53:09;19.19;48.39
69387;SHT31;56575;48.942;8.404;2022-07-18T00:55:40;19.12;47.78
69387;SHT31;56575;48.942;8.404;2022-07-18T00:58:07;19.12;48.78
69387;SHT31;56575;48.942;8.404;2022-07-18T01:00:33;19.15;50.01
69387;SHT31;56575;48.942;8.404;2022-07-18T01:03:19;19.09;48.83
69387;SHT31;56575;48.942;8.404;2022-07-18T01:05:44;19.12;50.67
69387;SHT31;56575;48.942;8.404;2022-07-18T01:08:10;19.06;49.23
69387;SHT31;56575;48.942;8.404;2022-07-18T01:10:38;19.03;48.92
69387;SHT31;56575;48.942;8.404;2022-07-18T01:13:04;18.98;49.38
69387;SHT31;56575;48.942;8.404;2022-07-18T01:15:29;18.98;48.68
69387;SHT31;56575;48.942;8.404;2022-07-18T01:17:54;18.91;47.87
69387;SHT31;56575;48.942;8.404;2022-07-18T01:20:20;18.94;48.57
69387;SHT31;56575;48.942;8.404;2022-07-18T01:22:45;18.85;48.36
69387;SHT31;56575;48.942;8.404;2022-07-18T01:25:11;18.78;48.25
69387;SHT31;56575;48.942;8.404;2022-07-18T01:27:37;18.74;48.48
69387;SHT31;56575;48.942;8.404;2022-07-18T01:30:05;18.72;48.97
69387;SHT31;56575;48.942;8.404;2022-07-18T01:32:31;18.67;49.27
69387;SHT31;56575;48.942;8.404;2022-07-18T01:34:56;18.68;49.82
69387;SHT31;56575;48.942;8.404;2022-07-18T01:37:22;18.63;48.20
69387;SHT31;56575;48.942;8.404;2022-07-18T01:39:48;18.60;48.92
69387;SHT31;56575;48.942;8.404;2022-07-18T01:42:14;18.46;49.09
69387;SHT31;56575;48.942;8.404;2022-07-18T01:44:40;18.50;49.51
69387;SHT31;56575;48.942;8.404;2022-07-18T01:47:08;18.44;49.07
69387;SHT31;56575;48.942;8.404;2022-07-18T01:49:34;18.40;49.35
69387;SHT31;56575;48.942;8.404;2022-07-18T01:52:00;18.37;49.84
69387;SHT31;56575;48.942;8.404;2022-07-18T01:54:28;18.30;49.46
69387;SHT31;56575;48.942;8.404;2022-07-18T01:56:55;18.33;49.69
69387;SHT31;56575;48.942;8.404;2022-07-18T01:59:20;18.29;49.63
69387;SHT31;56575;48.942;8.404;2022-07-18T02:01:46;18.22;49.89
69387;SHT31;56575;48.942;8.404;2022-07-18T02:04:12;18.22;50.28
69387;SHT31;56575;48.942;8.404;2022-07-18T02:06:37;18.19;50.96
69387;SHT31;56575;48.942;8.404;2022-07-18T02:09:03;18.16;50.71
69387;SHT31;56575;48.942;8.404;2022-07-18T02:11:29;18.16;49.84
69387;SHT31;56575;48.942;8.404;2022-07-18T02:13:56;18.17;50.32
69387;SHT31;56575;48.942;8.404;2022-07-18T02:16:22;18.20;50.39
69387;SHT31;56575;48.942;8.404;2022-07-18T02:18:48;18.14;50.58
69387;SHT31;56575;48.942;8.404;2022-07-18T02:21:14;18.14;51.03
69387;SHT31;56575;48.942;8.404;2022-07-18T02:23:40;18.17;51.36
69387;SHT31;56575;48.942;8.404;2022-07-18T02:26:06;18.14;50.41
69387;SHT31;56575;48.942;8.404;2022-07-18T02:28:31;18.10;51.09
69387;SHT31;56575;48.942;8.404;2022-07-18T02:30:57;18.12;50.97
69387;SHT31;56575;48.942;8.404;2022-07-18T02:33:22;18.06;52.08
69387;SHT31;56575;48.942;8.404;2022-07-18T02:35:48;18.03;52.65
69387;SHT31;56575;48.942;8.404;2022-07-18T02:38:13;17.92;51.90
69387;SHT31;56575;48.942;8.404;2022-07-18T02:40:39;17.86;52.66
69387;SHT31;56575;48.942;8.404;2022-07-18T02:43:04;17.86;53.05
69387;SHT31;56575;48.942;8.404;2022-07-18T02:45:30;17.81;52.27
69387;SHT31;56575;48.942;8.404;2022-07-18T02:47:56;17.82;53.03
69387;SHT31;56575;48.942;8.404;2022-07-18T02:50:21;17.75;52.38
69387;SHT31;56575;48.942;8.404;2022-07-18T02:52:47;17.77;52.48
69387;SHT31;56575;48.942;8.404;2022-07-18T02:55:13;17.73;53.01
69387;SHT31;56575;48.942;8.404;2022-07-18T02:57:39;17.67;53.38
69387;SHT31;56575;48.942;8.404;2022-07-18T03:00:07;17.67;51.77
69387;SHT31;56575;48.942;8.404;2022-07-18T03:02:34;17.61;51.66
69387;SHT31;56575;48.942;8.404;2022-07-18T03:04:59;17.67;52.36
69387;SHT31;56575;48.942;8.404;2022-07-18T03:07:24;17.63;53.37
69387;SHT31;56575;48.942;8.404;2022-07-18T03:09:50;17.64;52.32
69387;SHT31;56575;48.942;8.404;2022-07-18T03:12:16;17.55;52.81
69387;SHT31;56575;48.942;8.404;2022-07-18T03:14:42;17.53;52.65
69387;SHT31;56575;48.942;8.404;2022-07-18T03:17:07;17.54;52.50
69387;SHT31;56575;48.942;8.404;2022-07-18T03:19:33;17.53;52.77
69387;SHT31;56575;48.942;8.404;2022-07-18T03:21:59;17.51;52.31
69387;SHT31;56575;48.942;8.404;2022-07-18T03:24:24;17.55;52.64
69387;SHT31;56575;48.942;8.404;2022-07-18T03:26:50;17.54;53.29
69387;SHT31;56575;48.942;8.404;2022-07-18T03:29:15;17.54;51.97
69387;SHT31;56575;48.942;8.404;2022-07-18T03:31:41;17.54;51.45
69387;SHT31;56575;48.942;8.404;2022-07-18T03:34:06;17.51;52.15
69387;SHT31;56575;48.942;8.404;2022-07-18T03:36:33;17.54;50.68
69387;SHT31;56575;48.942;8.404;2022-07-18T03:38:58;17.55;51.53
69387;SHT31;56575;48.942;8.404;2022-07-18T03:41:24;17.60;50.41
69387;SHT31;56575;48.942;8.404;2022-07-18T03:43:50;17.61;49.22
69387;SHT31;56575;48.942;8.404;2022-07-18T03:46:16;17.65;50.83
69387;SHT31;56575;48.942;8.404;2022-07-18T03:48:42;17.68;49.91
69387;SHT31;56575;48.942;8.404;2022-07-18T03:51:07;17.71;50.53
69387;SHT31;56575;48.942;8.404;2022-07-18T03:53:33;17.67;50.13
69387;SHT31;56575;48.942;8.404;2022-07-18T03:55:59;17.67;51.69
69387;SHT31;56575;48.942;8.404;2022-07-18T03:58:24;17.64;51.05
69387;SHT31;56575;48.942;8.404;2022-07-18T04:00:50;17.60;50.38
69387;SHT31;56575;48.942;8.404;2022-07-18T04:03:16;17.60;50.73
69387;SHT31;56575;48.942;8.404;2022-07-18T04:05:42;17.61;51.61
69387;SHT31;56575;48.942;8.404;2022-07-18T04:08:08;17.61;51.31
69387;SHT31;56575;48.942;8.404;2022-07-18T04:10:35;17.58;52.05
69387;SHT31;56575;48.942;8.404;2022-07-18T04:13:08;17.58;52.29
69387;SHT31;56575;48.942;8.404;2022-07-18T04:15:34;17.53;51.31
69387;SHT31;56575;48.942;8.404;2022-07-18T04:18:00;17.51;51.76
69387;SHT31;56575;48.942;8.404;2022-07-18T04:20:26;17.53;52.00
69387;SHT31;56575;48.942;8.404;2022-07-18T04:22:57;17.55;51.99
69387;SHT31;56575;48.942;8.404;2022-07-18T04:25:25;17.53;52.39
69387;SHT31;56575;48.942;8.404;2022-07-18T04:27:52;17.54;53.03
69387;SHT31;56575;48.942;8.404;2022-07-18T04:30:20;17.55;52.37
69387;SHT31;56575;48.942;8.404;2022-07-18T04:32:45;17.54;52.89
69387;SHT31;56575;48.942;8.404;2022-07-18T04:35:11;17.55;52.13
69387;SHT31;56575;48.942;8.404;2022-07-18T04:37:39;17.54;51.94
69387;SHT31;56575;48.942;8.404;2022-07-18T04:40:07;17.53;52.07
69387;SHT31;56575;48.942;8.404;2022-07-18T04:42:33;17.47;51.85
69387;SHT31;56575;48.942;8.404;2022-07-18T04:44:59;17.44;52.11
69387;SHT31;56575;48.942;8.404;2022-07-18T04:47:26;17.47;51.44
69387;SHT31;56575;48.942;8.404;2022-07-18T04:49:52;17.41;52.10
69387;SHT31;56575;48.942;8.404;2022-07-18T04:52:19;17.41;52.52
69387;SHT31;56575;48.942;8.404;2022-07-18T04:54:44;17.43;53.23
69387;SHT31;56575;48.942;8.404;2022-07-18T04:57:10;17.50;52.42
69387;SHT31;56575;48.942;8.404;2022-07-18T04:59:38;17.51;52.26
69387;SHT31;56575;48.942;8.404;2022-07-18T05:02:04;17.55;52.34
69387;SHT31;56575;48.942;8.404;2022-07-18T05:04:29;17.60;51.69
69387;SHT31;56575;48.942;8.404;2022-07-18T05:06:55;17.64;52.22
69387;SHT31;56575;48.942;8.404;2022-07-18T05:09:20;17.67;52.81
69387;SHT31;56575;48.942;8.404;2022-07-18T05:11:46;17.74;52.40
69387;SHT31;56575;48.942;8.404;2022-07-18T05:14:12;17.79;52.48
69387;SHT31;56575;48.942;8.404;2022-07-18T05:16:37;17.85;52.69
69387;SHT31;56575;48.942;8.404;2022-07-18T05:19:02;17.92;52.12
69387;SHT31;56575;48.942;8.404;2022-07-18T05:21:28;18.01;51.66
69387;SHT31;56575;48.942;8.404;2022-07-18T05:23:54;18.10;51.25
69387;SHT31;56575;48.942;8.404;2022-07-18T05:26:19;18.16;52.39
69387;SHT31;56575;48.942;8.404;2022-07-18T05:28:44;18.23;51.70
69387;SHT31;56575;48.942;8.404;2022-07-18T05:31:11;18.28;49.87
69387;SHT31;56575;48.942;8.404;2022-07-18T05:33:36;18.39;49.90
69387;SHT31;56575;48.942;8.404;2022-07-18T05:36:02;18.41;49.78
69387;SHT31;56575;48.942;8.404;2022-07-18T05:38:27;18.46;49.24
69387;SHT31;56575;48.942;8.404;2022-07-18T05:40:53;18.43;49.83
69387;SHT31;56575;48.942;8.404;2022-07-18T05:43:18;18.48;50.85
69387;SHT31;56575;48.942;8.404;2022-07-18T05:45:44;18.60;50.62
69387;SHT31;56575;48.942;8.404;2022-07-18T05:48:10;18.65;50.19
69387;SHT31;56575;48.942;8.404;2022-07-18T05:50:35;18.72;49.92
69387;SHT31;56575;48.942;8.404;2022-07-18T05:53:00;18.85;49.44
69387;SHT31;56575;48.942;8.404;2022-07-18T05:55:26;18.94;48.80
69387;SHT31;56575;48.942;8.404;2022-07-18T05:57:51;18.98;49.06
69387;SHT31;56575;48.942;8.404;2022-07-18T06:00:18;19.06;49.61
69387;SHT31;56575;48.942;8.404;2022-07-18T06:02:44;19.12;50.02
69387;SHT31;56575;48.942;8.404;2022-07-18T06:05:10;19.20;50.13
69387;SHT31;56575;48.942;8.404;2022-07-18T06:07:35;19.30;50.79
69387;SHT31;56575;48.942;8.404;2022-07-18T06:10:00;19.31;50.91
69387;SHT31;56575;48.942;8.404;2022-07-18T06:12:30;19.43;49.57
69387;SHT31;56575;48.942;8.404;2022-07-18T06:14:56;19.47;50.09
69387;SHT31;56575;48.942;8.404;2022-07-18T06:17:22;19.53;49.71
69387;SHT31;56575;48.942;8.404;2022-07-18T06:19:47;19.61;49.69
69387;SHT31;56575;48.942;8.404;2022-07-18T06:22:12;19.68;48.98
69387;SHT31;56575;48.942;8.404;2022-07-18T06:24:38;19.75;49.16
69387;SHT31;56575;48.942;8.404;2022-07-18T06:27:03;19.78;48.12
69387;SHT31;56575;48.942;8.404;2022-07-18T06:29:29;19.86;49.38
69387;SHT31;56575;48.942;8.404;2022-07-18T06:31:54;19.92;49.97
69387;SHT31;56575;48.942;8.404;2022-07-18T06:34:19;20.02;50.25
69387;SHT31;56575;48.942;8.404;2022-07-18T06:36:45;20.05;50.11
69387;SHT31;56575;48.942;8.404;2022-07-18T06:39:10;20.13;48.36
69387;SHT31;56575;48.942;8.404;2022-07-18T06:41:39;20.22;48.83
69387;SHT31;56575;48.942;8.404;2022-07-18T06:44:05;20.29;48.74
69387;SHT31;56575;48.942;8.404;2022-07-18T06:46:31;20.34;48.50
69387;SHT31;56575;48.942;8.404;2022-07-18T06:48:57;20.40;49.63
69387;SHT31;56575;48.942;8.404;2022-07-18T06:51:22;20.47;49.41
69387;SHT31;56575;48.942;8.404;2022-07-18T06:53:49;20.56;48.98
69387;SHT31;56575;48.942;8.404;2022-07-18T06:56:14;20.60;49.35
69387;SHT31;56575;48.942;8.404;2022-07-18T06:58:40;20.70;48.72
69387;SHT31;56575;48.942;8.404;2022-07-18T07:01:05;20.77;48.46
69387;SHT31;56575;48.942;8.404;2022-07-18T07:03:32;20.81;48.19
69387;SHT31;56575;48.942;8.404;2022-07-18T07:05:57;20.88;48.94
69387;SHT31;56575;48.942;8.404;2022-07-18T07:08:22;20.95;48.27
69387;SHT31;56575;48.942;8.404;2022-07-18T07:10:48;21.01;48.04
69387;SHT31;56575;48.942;8.404;2022-07-18T07:13:13;21.02;48.05
69387;SHT31;56575;48.942;8.404;2022-07-18T07:15:39;21.13;48.37
69387;SHT31;56575;48.942;8.404;2022-07-18T07:18:06;21.18;46.94
69387;SHT31;56575;48.942;8.404;2022-07-18T07:20:31;21.26;48.21
69387;SHT31;56575;48.942;8.404;2022-07-18T07:22:57;21.32;47.35
69387;SHT31;56575;48.942;8.404;2022-07-18T07:25:25;21.40;47.31
69387;SHT31;56575;48.942;8.404;2022-07-18T07:27:51;21.42;47.40
69387;SHT31;56575;48.942;8.404;2022-07-18T07:30:17;21.50;47.04
69387;SHT31;56575;48.942;8.404;2022-07-18T07:32:44;21.54;47.16
69387;SHT31;56575;48.942;8.404;2022-07-18T07:35:12;21.58;47.13
69387;SHT31;56575;48.942;8.404;2022-07-18T07:37:39;21.67;46.74
69387;SHT31;56575;48.942;8.404;2022-07-18T07:40:05;21.74;46.92
69387;SHT31;56575;48.942;8.404;2022-07-18T07:42:30;21.81;46.73
69387;SHT31;56575;48.942;8.404;2022-07-18T07:44:56;21.84;47.10
69387;SHT31;56575;48.942;8.404;2022-07-18T07:47:21;21.91;46.88
69387;SHT31;56575;48.942;8.404;2022-07-18T07:49:47;21.95;46.77
69387;SHT31;56575;48.942;8.404;2022-07-18T07:52:12;22.02;46.42
69387;SHT31;56575;48.942;8.404;2022-07-18T07:54:39;22.11;47.35
69387;SHT31;56575;48.942;8.404;2022-07-18T07:57:05;22.18;47.01
69387;SHT31;56575;48.942;8.404;2022-07-18T07:59:30;22.25;46.96
69387;SHT31;56575;48.942;8.404;2022-07-18T08:01:58;22.36;45.85
69387;SHT31;56575;48.942;8.404;2022-07-18T08:04:23;22.49;45.43
69387;SHT31;56575;48.942;8.404;2022-07-18T08:06:50;22.63;46.30
69387;SHT31;56575;48.942;8.404;2022-07-18T08:09:15;22.74;45.17
69387;SHT31;56575;48.942;8.404;2022-07-18T08:11:41;22.81;46.15
69387;SHT31;56575;48.942;8.404;2022-07-18T08:14:07;22.88;46.51
69387;SHT31;56575;48.942;8.404;2022-07-18T08:16:32;22.98;44.97
69387;SHT31;56575;48.942;8.404;2022-07-18T08:18:58;23.11;45.26
69387;SHT31;56575;48.942;8.404;2022-07-18T08:21:23;23.22;45.12
69387;SHT31;56575;48.942;8.404;2022-07-18T08:23:48;23.36;45.63
69387;SHT31;56575;48.942;8.404;2022-07-18T08:26:14;23.45;45.41
69387;SHT31;56575;48.942;8.404;2022-07-18T08:28:40;23.64;44.33
69387;SHT31;56575;48.942;8.404;2022-07-18T08:31:05;23.73;44.39
69387;SHT31;56575;48.942;8.404;2022-07-18T08:33:30;23.85;45.44
69387;SHT31;56575;48.942;8.404;2022-07-18T08:35:56;23.94;44.46
69387;SHT31;56575;48.942;8.404;2022-07-18T08:38:21;24.07;43.87
69387;SHT31;56575;48.942;8.404;2022-07-18T08:40:47;24.15;43.49
69387;SHT31;56575;48.942;8.404;2022-07-18T08:43:14;24.24;43.42
69387;SHT31;56575;48.942;8.404;2022-07-18T08:45:42;24.37;44.49
69387;SHT31;56575;48.942;8.404;2022-07-18T08:48:09;24.46;44.17
69387;SHT31;56575;48.942;8.404;2022-07-18T08:50:34;24.60;43.57
69387;SHT31;56575;48.942;8.404;2022-07-18T08:53:00;24.73;43.98
69387;SHT31;56575;48.942;8.404;2022-07-18T08:55:26;24.79;43.23
69387;SHT31;56575;48.942;8.404;2022-07-18T08:57:55;24.90;42.26
69387;SHT31;56575;48.942;8.404;2022-07-18T09:00:20;25.03;42.16
69387;SHT31;56575;48.942;8.404;2022-07-18T09:02:46;25.12;43.19
69387;SHT31;56575;48.942;8.404;2022-07-18T09:05:20;25.22;43.03
69387;SHT31;56575;48.942;8.404;2022-07-18T09:07:47;25.32;41.72
69387;SHT31;56575;48.942;8.404;2022-07-18T09:10:13;25.46;42.55
69387;SHT31;56575;48.942;8.404;2022-07-18T09:12:38;25.60;41.06
69387;SHT31;56575;48.942;8.404;2022-07-18T09:15:08;25.74;42.30
69387;SHT31;56575;48.942;8.404;2022-07-18T09:17:36;25.83;41.25
69387;SHT31;56575;48.942;8.404;2022-07-18T09:20:13;26.05;39.28
69387;SHT31;56575;48.942;8.404;2022-07-18T09:22:46;26.18;41.06
69387;SHT31;56575;48.942;8.404;2022-07-18T09:25:17;26.35;40.14
69387;SHT31;56575;48.942;8.404;2022-07-18T09:27:50;26.51;38.70
69387;SHT31;56575;48.942;8.404;2022-07-18T09:30:32;26.68;38.63
69387;SHT31;56575;48.942;8.404;2022-07-18T09:35:37;27.01;39.27
69387;SHT31;56575;48.942;8.404;2022-07-18T09:38:08;27.14;39.88
69387;SHT31;56575;48.942;8.404;2022-07-18T09:40:38;27.27;37.37
69387;SHT31;56575;48.942;8.404;2022-07-18T09:43:06;27.37;37.96
69387;SHT31;56575;48.942;8.404;2022-07-18T09:48:09;27.70;36.15
69387;SHT31;56575;48.942;8.404;2022-07-18T09:50:37;27.79;36.11
69387;SHT31;56575;48.942;8.404;2022-07-18T09:53:12;27.92;35.88
69387;SHT31;56575;48.942;8.404;2022-07-18T09:55:46;27.96;38.27
69387;SHT31;56575;48.942;8.404;2022-07-18T09:58:15;28.03;37.47
69387;SHT31;56575;48.942;8.404;2022-07-18T10:00:41;28.08;35.05
69387;SHT31;56575;48.942;8.404;2022-07-18T10:03:07;28.20;35.30
69387;SHT31;56575;48.942;8.404;2022-07-18T10:05:38;28.31;36.64
69387;SHT31;56575;48.942;8.404;2022-07-18T10:08:07;28.41;36.16
69387;SHT31;56575;48.942;8.404;2022-07-18T10:10:36;28.51;35.52
69387;SHT31;56575;48.942;8.404;2022-07-18T10:13:08;28.70;34.36
69387;SHT31;56575;48.942;8.404;2022-07-18T10:15:40;28.87;36.01
69387;SHT31;56575;48.942;8.404;2022-07-18T10:18:09;28.99;33.72
69387;SHT31;56575;48.942;8.404;2022-07-18T10:20:40;29.10;35.79
69387;SHT31;56575;48.942;8.404;2022-07-18T10:23:34;29.25;32.49
69387;SHT31;56575;48.942;8.404;2022-07-18T10:29:15;29.62;34.29
69387;SHT31;56575;48.942;8.404;2022-07-18T10:32:00;29.72;34.96
69387;SHT31;56575;48.942;8.404;2022-07-18T10:34:36;29.89;30.26
69387;SHT31;56575;48.942;8.404;2022-07-18T10:39:46;30.27;29.62
69387;SHT31;56575;48.942;8.404;2022-07-18T10:42:20;30.35;32.41
69387;SHT31;56575;48.942;8.404;2022-07-18T10:44:51;30.45;30.32
69387;SHT31;56575;48.942;8.404;2022-07-18T10:47:28;30.57;30.38
69387;SHT31;56575;48.942;8.404;2022-07-18T11:00:40;31.20;29.90
69387;SHT31;56575;48.942;8.404;2022-07-18T11:03:10;31.34;29.27
69387;SHT31;56575;48.942;8.404;2022-07-18T11:05:42;31.45;27.57
69387;SHT31;56575;48.942;8.404;2022-07-18T11:21:50;32.79;27.27
69387;SHT31;56575;48.942;8.404;2022-07-18T11:24:30;32.96;27.93
69387;SHT31;56575;48.942;8.404;2022-07-18T11:26:58;33.03;28.08
69387;SHT31;56575;48.942;8.404;2022-07-18T11:29:33;33.12;25.18
69387;SHT31;56575;48.942;8.404;2022-07-18T11:32:10;33.39;25.10
69387;SHT31;56575;48.942;8.404;2022-07-18T11:34:39;33.60;27.05
69387;SHT31;56575;48.942;8.404;2022-07-18T11:37:19;33.85;29.38
69387;SHT31;56575;48.942;8.404;2022-07-18T11:39:44;34.15;23.78
69387;SHT31;56575;48.942;8.404;2022-07-18T11:42:10;34.27;26.80
69387;SHT31;56575;48.942;8.404;2022-07-18T11:44:37;34.45;23.15
69387;SHT31;56575;48.942;8.404;2022-07-18T11:47:11;34.60;23.68
69387;SHT31;56575;48.942;8.404;2022-07-18T11:49:39;34.71;24.71
69387;SHT31;56575;48.942;8.404;2022-07-18T11:52:05;34.91;22.33
69387;SHT31;56575;48.942;8.404;2022-07-18T11:54:31;35.16;23.34
69387;SHT31;56575;48.942;8.404;2022-07-18T11:56:58;35.38;24.48
69387;SHT31;56575;48.942;8.404;2022-07-18T11:59:35;35.69;25.80
69387;SHT31;56575;48.942;8.404;2022-07-18T12:02:01;35.87;23.63
69387;SHT31;56575;48.942;8.404;2022-07-18T12:04:27;36.00;22.33
69387;SHT31;56575;48.942;8.404;2022-07-18T12:07:18;36.18;23.15
69387;SHT31;56575;48.942;8.404;2022-07-18T12:09:45;36.23;23.61
69387;SHT31;56575;48.942;8.404;2022-07-18T12:12:12;36.38;23.01
69387;SHT31;56575;48.942;8.404;2022-07-18T12:14:37;36.41;23.28
69387;SHT31;56575;48.942;8.404;2022-07-18T12:17:04;36.42;23.25
69387;SHT31;56575;48.942;8.404;2022-07-18T12:19:37;36.55;22.44
69387;SHT31;56575;48.942;8.404;2022-07-18T12:22:06;36.82;23.91
69387;SHT31;56575;48.942;8.404;2022-07-18T12:27:23;37.20;22.34
69387;SHT31;56575;48.942;8.404;2022-07-18T12:32:50;37.41;22.51
69387;SHT31;56575;48.942;8.404;2022-07-18T12:38:03;37.27;20.02
69387;SHT31;56575;48.942;8.404;2022-07-18T12:40:42;37.55;21.70
69387;SHT31;56575;48.942;8.404;2022-07-18T12:43:32;37.65;18.92
69387;SHT31;56575;48.942;8.404;2022-07-18T12:45:58;37.75;20.72
69387;SHT31;56575;48.942;8.404;2022-07-18T12:48:24;37.80;20.60
69387;SHT31;56575;48.942;8.404;2022-07-18T12:51:20;37.73;21.78
69387;SHT31;56575;48.942;8.404;2022-07-18T12:53:54;37.83;20.33
69387;SHT31;56575;48.942;8.404;2022-07-18T12:56:20;37.87;19.87
69387;SHT31;56575;48.942;8.404;2022-07-18T12:58:45;37.76;20.81
69387;SHT31;56575;48.942;8.404;2022-07-18T13:01:11;37.55;21.46
69387;SHT31;56575;48.942;8.404;2022-07-18T13:03:37;37.37;22.70
69387;SHT31;56575;48.942;8.404;2022-07-18T13:06:03;37.48;21.49
69387;SHT31;56575;48.942;8.404;2022-07-18T13:08:29;37.55;19.72
69387;SHT31;56575;48.942;8.404;2022-07-18T13:10:55;37.25;19.00
69387;SHT31;56575;48.942;8.404;2022-07-18T13:13:20;36.91;20.57
69387;SHT31;56575;48.942;8.404;2022-07-18T13:15:46;36.88;19.94
69387;SHT31;56575;48.942;8.404;2022-07-18T13:18:13;36.82;20.82
69387;SHT31;56575;48.942;8.404;2022-07-18T13:20:40;36.82;22.41
69387;SHT31;56575;48.942;8.404;2022-07-18T13:23:05;36.69;22.03
69387;SHT31;56575;48.942;8.404;2022-07-18T13:25:31;36.73;20.23
69387;SHT31;56575;48.942;8.404;2022-07-18T13:27:59;36.63;24.09
69387;SHT31;56575;48.942;8.404;2022-07-18T13:30:25;36.52;20.84
69387;SHT31;56575;48.942;8.404;2022-07-18T13:32:50;36.60;21.66
69387;SHT31;56575;48.942;8.404;2022-07-18T13:35:16;36.55;21.23
69387;SHT31;56575;48.942;8.404;2022-07-18T13:37:42;36.57;20.66
69387;SHT31;56575;48.942;8.404;2022-07-18T13:40:08;36.41;20.74
69387;SHT31;56575;48.942;8.404;2022-07-18T13:42:35;36.36;21.56
69387;SHT31;56575;48.942;8.404;2022-07-18T13:45:01;36.32;22.21
69387;SHT31;56575;48.942;8.404;2022-07-18T13:47:26;36.31;23.43
69387;SHT31;56575;48.942;8.404;2022-07-18T13:49:51;36.31;21.97
69387;SHT31;56575;48.942;8.404;2022-07-18T13:52:17;36.21;22.52
69387;SHT31;56575;48.942;8.404;2022-07-18T13:54:48;36.21;23.15
69387;SHT31;56575;48.942;8.404;2022-07-18T13:57:25;36.20;23.63
69387;SHT31;56575;48.942;8.404;2022-07-18T14:00:13;36.07;23.05
69387;SHT31;56575;48.942;8.404;2022-07-18T14:02:39;36.05;21.60
69387;SHT31;56575;48.942;8.404;2022-07-18T14:05:10;36.04;20.04
69387;SHT31;56575;48.942;8.404;2022-07-18T14:07:35;36.04;22.02
69387;SHT31;56575;48.942;8.404;2022-07-18T14:10:10;35.98;22.99
69387;SHT31;56575;48.942;8.404;2022-07-18T14:12:41;36.05;23.32
69387;SHT31;56575;48.942;8.404;2022-07-18T14:15:16;36.09;22.66
69387;SHT31;56575;48.942;8.404;2022-07-18T14:17:41;35.96;22.87
69387;SHT31;56575;48.942;8.404;2022-07-18T14:20:11;35.98;23.72
69387;SHT31;56575;48.942;8.404;2022-07-18T14:22:49;35.81;22.14
69387;SHT31;56575;48.942;8.404;2022-07-18T14:25:17;35.79;23.21
69387;SHT31;56575;48.942;8.404;2022-07-18T14:27:54;35.67;23.62
69387;SHT31;56575;48.942;8.404;2022-07-18T14:30:39;35.67;23.14
69387;SHT31;56575;48.942;8.404;2022-07-18T14:33:05;35.70;24.08
69387;SHT31;56575;48.942;8.404;2022-07-18T14:35:36;35.70;22.25
69387;SHT31;56575;48.942;8.404;2022-07-18T14:38:02;35.69;24.35
69387;SHT31;56575;48.942;8.404;2022-07-18T14:40:33;35.69;23.68
69387;SHT31;56575;48.942;8.404;2022-07-18T14:43:01;35.60;22.22
69387;SHT31;56575;48.942;8.404;2022-07-18T14:45:32;35.57;22.03
69387;SHT31;56575;48.942;8.404;2022-07-18T14:48:12;35.59;24.02
69387;SHT31;56575;48.942;8.404;2022-07-18T14:50:46;35.63;22.89
69387;SHT31;56575;48.942;8.404;2022-07-18T14:53:20;35.72;23.86
69387;SHT31;56575;48.942;8.404;2022-07-18T14:56:09;35.80;21.47
69387;SHT31;56575;48.942;8.404;2022-07-18T14:58:39;35.81;22.02
69387;SHT31;56575;48.942;8.404;2022-07-18T15:01:13;35.83;23.45
69387;SHT31;56575;48.942;8.404;2022-07-18T15:03:45;35.76;22.24
69387;SHT31;56575;48.942;8.404;2022-07-18T15:06:13;35.74;22.89
69387;SHT31;56575;48.942;8.404;2022-07-18T15:08:39;35.66;22.78
69387;SHT31;56575;48.942;8.404;2022-07-18T15:11:09;35.63;24.07
69387;SHT31;56575;48.942;8.404;2022-07-18T15:13:35;35.64;23.73
69387;SHT31;56575;48.942;8.404;2022-07-18T15:16:00;35.67;21.68
69387;SHT31;56575;48.942;8.404;2022-07-18T15:18:26;35.63;22.99
69387;SHT31;56575;48.942;8.404;2022-07-18T15:20:51;35.70;21.20
69387;SHT31;56575;48.942;8.404;2022-07-18T15:23:17;35.70;22.46
69387;SHT31;56575;48.942;8.404;2022-07-18T15:25:42;35.77;22.84
69387;SHT31;56575;48.942;8.404;2022-07-18T15:28:11;35.73;22.46
69387;SHT31;56575;48.942;8.404;2022-07-18T15:30:39;35.70;22.91
69387;SHT31;56575;48.942;8.404;2022-07-18T15:33:04;35.63;22.65
69387;SHT31;56575;48.942;8.404;2022-07-18T15:35:32;35.66;21.73
69387;SHT31;56575;48.942;8.404;2022-07-18T15:37:58;35.76;22.67
69387;SHT31;56575;48.942;8.404;2022-07-18T15:40:26;35.73;22.17
69387;SHT31;56575;48.942;8.404;2022-07-18T15:42:51;35.63;21.43
69387;SHT31;56575;48.942;8.404;2022-07-18T15:45:23;35.57;22.13
69387;SHT31;56575;48.942;8.404;2022-07-18T15:48:06;35.67;23.82
69387;SHT31;56575;48.942;8.404;2022-07-18T15:50:34;35.69;23.18
69387;SHT31;56575;48.942;8.404;2022-07-18T15:53:03;35.59;22.95
69387;SHT31;56575;48.942;8.404;2022-07-18T15:55:31;35.64;24.55
69387;SHT31;56575;48.942;8.404;2022-07-18T15:57:58;35.57;24.21
69387;SHT31;56575;48.942;8.404;2022-07-18T16:00:27;35.45;22.94
69387;SHT31;56575;48.942;8.404;2022-07-18T16:02:58;35.36;22.09
69387;SHT31;56575;48.942;8.404;2022-07-18T16:05:23;35.42;22.05
69387;SHT31;56575;48.942;8.404;2022-07-18T16:07:49;35.39;22.59
69387;SHT31;56575;48.942;8.404;2022-07-18T16:10:20;35.45;24.21
69387;SHT31;56575;48.942;8.404;2022-07-18T16:12:48;35.35;22.92
69387;SHT31;56575;48.942;8.404;2022-07-18T16:15:21;35.26;24.16
69387;SHT31;56575;48.942;8.404;2022-07-18T16:17:47;35.25;23.17